Terminal Aerodrome Forecast
Issued by NWS

Current Version | Previous Version | Text Only | Print | Product List | Glossary Off
Versions: 1 2 3 4 5 6 7 8 9 10 11 12 13 14 15 16 17 18 19 20 21 22 23 24 25 26 27 28

000
FTUS41 KPBZ 220912 AAB
TAFHLG
TAF AMD
KHLG 220912Z 2209/2306 16004KT 5SM BR OVC005
     FM221300 20004KT P6SM VCSH OVC025
     FM221400 20004KT 4SM -TSRA OVC050CB
     FM221500 20005KT 5SM -SHRA OVC050
      TEMPO 2215/2216 4SM -TSRA OVC025CB
     FM221800 22007KT P6SM OVC050=

USA.gov is the U.S. government's official web portal to all federal, state and local government web resources and services.